x

Sand Key, Fl (sanf1) Weather Station

1:50am - Fri 19th Sep 2014 All times are CDT. -4 hours from GMT.

  • Wind
    5mph, 7mph gusts
  • Air Temp 82°f
  • Sea Pressure 1013.5mb
  • Sand Key, Fl
  • Sand Key, Fl

More Historic Weather Station data

Upgrade to MSW Pro to gain access to the past 30 days of data for over 8000 Wavebouys and Weather Stations around the globe.

Join Pro

Comparision Forecast

View Surf forecast
   
Fri 09/19 1:50am 5 7 mph 1013.5mb 82f
12:50am 5 6 mph 1013.9mb 83f
Thu 09/18 11:50pm 6 7 mph 1014.1mb 83f
10:50pm 5 7 mph 1014mb 83f
9:50pm 6 7 mph 1013.8mb 83f
8:50pm 8 9 mph 1013.1mb 83f
7:50pm 10 13 mph 1013mb 83f
6:50pm 9 10 mph 1012.7mb 82f
5:50pm 5 6 mph 1012.4mb 84f
4:50pm 7 9 mph 1012.6mb 83f
3:50pm 9 11 mph 1012.8mb 83f
2:50pm 7 8 mph 1013.4mb 83f
1:50pm 6 8 mph 1013.8mb 83f
12:50pm 7 8 mph 1014.4mb 83f
11:50am 6 9 mph 1014.7mb 84f
10:50am 5 7 mph 1014.7mb 83f
9:50am 6 8 mph 1014.2mb 83f
8:50am 3 7 mph 1013.8mb 83f
7:50am 5 7 mph 1013.5mb 82f
6:50am 2 7 mph 1013mb 82f
5:50am 3 5 mph 1012.4mb 82f
4:50am 2 3 mph 1012.2mb 82f
3:50am 2 6 mph 1012.3mb 82f
2:50am 2 7 mph 1012.9mb 82f
1:50am 3 6 mph 1013.8mb 83f
12:50am 3 8 mph 1014.5mb 82f
Wed 09/17 11:50pm 8 9 mph 1014.8mb 82f
10:50pm 9 15 mph 1014.9mb 82f
9:50pm 10 11 mph 1014.5mb 82f
8:50pm 5 6 mph 1013.8mb 83f
7:50pm 2 5 mph 1013.4mb 83f
6:50pm 3 6 mph 1013.1mb 82f
5:50pm 5 6 mph 1013.1mb 84f
4:50pm 2 3 mph 1013mb 85f
3:50pm 2 3 mph 1013mb 84f
2:50pm  -  1 mph 1013.5mb 84f
1:50pm 2 3 mph 1014.3mb 84f
12:50pm 2 3 mph 1015.4mb 83f
11:50am  -  2 mph 1015.8mb 83f
10:50am 2 3 mph 1015.9mb 82f
9:50am 2 3 mph 1015.5mb 83f
8:50am  -  2 mph 1015.2mb 83f
7:50am 1 2 mph 1015mb 82f
6:50am  -  1 mph 1014.5mb 81f
5:50am  -  1 mph 1014.3mb 82f
4:50am 1 3 mph 1014.2mb 82f
3:50am 3 5 mph 1014.4mb 82f
2:50am 6
mph
1015mb 82f
1:50am 8 14 mph 1015.3mb 82f
12:50am 7 11 mph 1016.1mb 82f
Tue 09/16 11:50pm 8 44 mph 1016.8mb 82f
10:50pm 10 11 mph 1017.2mb 80f
9:50pm 11 17 mph 1016.7mb 83f
8:50pm 9 11 mph 1016.3mb 83f
7:50pm 11 16 mph 1015.7mb 83f
6:50pm 8 10 mph 1015.5mb 83f
5:50pm 6 8 mph 1015.3mb 83f
4:50pm 6 7 mph 1015.5mb 83f
3:50pm 10 13 mph 1015.9mb 83f
2:50pm 7 9 mph 1016.6mb 83f
1:50pm 8 9 mph 1017.2mb 83f
12:50pm 9 11 mph 1017.7mb 83f
11:50am 10 11 mph 1018mb 83f
10:50am 11 13 mph 1018.1mb 82f
9:50am 9 10 mph 1018.5mb 82f
8:50am 10 11 mph 1018.6mb 82f
7:50am 11 13 mph 1018.5mb 82f
6:50am 11 14 mph 1018.3mb 82f
5:50am 13 15 mph 1017.9mb 82f
4:50am 13 14 mph 1017.8mb 82f
3:50am 11 14 mph 1017.9mb 83f
2:50am 10 13 mph 1018.4mb 82f
1:50am 11 14 mph 1019mb 82f
12:50am 13 15 mph 1019.5mb 83f
Mon 09/15 11:50pm 14 16 mph 1019.6mb 83f
10:50pm 13 15 mph 1019.5mb 83f
9:50pm 13 15 mph 1019.8mb 84f
8:50pm 13 15 mph 1019.2mb 84f
7:50pm 11 14 mph 1018.7mb 84f
6:50pm 11 13 mph 1018.2mb 84f
5:50pm 13 14 mph 1018.3mb 84f
4:50pm 13 14 mph 1018.2mb 84f
3:50pm 11 14 mph 1018.6mb 84f
2:50pm 10 13 mph 1019.1mb 84f
1:50pm 14 15 mph 1019.8mb 84f
12:50pm 15 16 mph 1019.9mb 84f
11:50am 14 16 mph 1020.4mb 84f
10:50am 15 16 mph 1020.1mb 85f
9:50am 14 15 mph 1020.1mb 84f
8:50am 14 17 mph 1019.9mb 84f
7:50am 14 17 mph 1019.5mb 84f
6:50am 14 16 mph 1019.1mb 84f